CST,Max TemperatureF,Mean TemperatureF,Min TemperatureF,Max Dew PointF,MeanDew PointF,Min DewpointF,Max Humidity, Mean Humidity, Min Humidity, Max Sea Level PressureIn, Mean Sea Level PressureIn, Min Sea Level PressureIn, Max VisibilityMiles, Mean VisibilityMiles, Min VisibilityMiles, Max Wind SpeedMPH, Mean Wind SpeedMPH, Max Gust SpeedMPH,PrecipitationIn, CloudCover, Events, WindDirDegrees
2013-1-1,75,65,54,64,58,48,93,77,61,30.11,30.00,29.94,10,5,1,18,9,23,0.36,7,Rain,234
2013-1-2,57,51,44,52,46,39,93,75,57,30.18,30.07,29.99,10,9,4,16,8,21,T,7,Rain,337
2013-1-3,46,38,29,40,37,28,93,79,65,30.35,30.24,30.18,8,3,1,13,6,16,0.28,6,Rain,330
2013-1-4,56,42,27,34,27,20,92,59,26,30.43,30.37,30.34,10,8,3,13,3,17,0.00,0,,357
2013-1-5,54,42,30,35,30,24,92,62,32,30.40,30.34,30.25,10,10,9,10,2,15,0.00,2,,32
2013-1-6,51,44,36,41,38,32,92,74,56,30.29,30.25,30.20,10,10,7,9,4,12,0.02,5,Rain,353
2013-1-7,59,44,28,36,30,27,100,67,33,30.36,30.30,30.27,10,5,0,14,4,18,0.00,0,Fog,70
2013-1-8,65,53,41,49,43,34,76,68,60,30.32,30.26,30.23,10,9,7,12,5,15,0.00,6,,68
2013-1-9,65,61,57,59,56,51,90,81,72,30.33,30.30,30.25,8,5,4,10,6,14,0.00,8,,81
2013-1-10,78,70,62,66,63,59,100,82,64,30.33,30.28,30.14,10,4,0,16,8,23,T,7,Fog-Rain,107
2013-1-11,78,68,58,63,61,57,93,77,60,30.20,30.14,30.07,10,8,5,22,8,29,T,5,,177
2013-1-12,77,69,60,64,61,56,100,75,50,30.17,30.10,30.04,10,5,0,18,6,24,0.00,5,Fog,172
2013-1-13,78,71,64,66,63,61,93,77,60,30.07,30.03,29.99,10,7,5,17,9,23,0.01,7,Rain,173
2013-1-14,75,64,52,68,61,51,100,87,73,30.14,30.09,30.02,10,5,0,17,7,23,0.11,7,Fog-Rain,268
2013-1-15,78,66,53,67,64,53,100,81,62,30.08,30.01,29.94,9,4,0,18,7,25,0.22,8,Fog-Rain,180
2013-1-16,68,59,49,66,56,46,100,97,93,30.03,29.97,29.92,10,4,0,21,5,26,1.07,8,Fog-Rain,292
2013-1-17,51,44,36,48,38,30,93,82,70,30.30,30.03,29.94,10,6,1,24,12,31,0.02,7,Rain,270
2013-1-18,58,44,29,33,30,26,92,61,30,30.52,30.43,30.32,10,10,4,14,4,18,0.00,0,,18
2013-1-19,60,44,28,44,34,27,92,65,37,30.45,30.34,30.24,10,10,9,6,1,8,0.00,4,,140
2013-1-20,66,50,33,42,37,31,92,61,30,30.27,30.20,30.14,10,9,5,14,2,17,0.00,0,,324
2013-1-21,65,48,30,41,35,29,96,67,37,30.21,30.16,30.11,10,9,5,17,5,22,0.00,0,,332
2013-1-22,55,42,29,30,24,17,92,59,26,30.38,30.31,30.21,10,10,10,14,4,20,0.00,0,,344
2013-1-23,59,44,28,43,34,26,92,65,38,30.43,30.34,30.28,10,9,4,10,3,14,0.00,5,,223
2013-1-24,67,56,45,52,47,40,93,75,56,30.32,30.28,30.25,8,6,2,14,5,20,0.00,4,,291
2013-1-25,70,59,48,51,43,29,83,61,38,30.30,30.22,30.14,10,7,3,22,7,28,0.00,3,,193
2013-1-26,62,52,41,55,50,40,100,82,64,30.29,30.22,30.17,9,5,2,10,3,13,0.00,5,,311
2013-1-27,70,54,38,45,38,31,100,63,26,30.36,30.31,30.28,10,8,5,13,4,17,0.00,2,,99
2013-1-28,74,63,52,56,52,45,93,71,49,30.37,30.31,30.21,9,5,1,13,4,16,0.00,6,,127
2013-1-29,77,66,54,65,58,52,93,77,60,30.20,30.10,29.93,10,5,0,22,8,29,T,6,Fog,159
2013-1-30,77,60,42,68,58,27,93,78,62,30.04,29.75,29.63,10,4,0,37,15,48,1.05,8,Fog-Rain-Thunderstorm,235
2013-1-31,55,44,33,34,28,22,92,60,27,30.29,30.19,30.06,10,10,10,21,6,26,0.00,0,,294